Alburaq — 3ESY9 — position and weather

sailwx.info

Track history (hours):
 
Tides and Currents Weather Stations Pressure Air Temp Water Temp Dewpoint Dewpoint Depression Visibility Wind Speed Wind Dir Waves Ship Positions

Alburaq

Last reported at 2018-Jul-16 23:19 UTC. Time now 2018-Jul-17 16:54 UTC.
Position N 35°45' E 016°18'.

Length 250 m; draft 8.4 m.

Type: Tanker. MMSI: 370467000.

Date/timePositionNaut miles runAvg speedWind from/ knotsBaromVisibWave heightAir tempDewpointWater temp
2018-Jul-16 23:19N 35°45' E 016°18'513.3
2018-Jul-16 22:59N 35°46' E 016°13'3913.2
2018-Jul-16 20:03N 35°57' E 015°27'113.6
2018-Jul-16 19:58N 35°57' E 015°26'613.5
2018-Jul-16 19:30N 35°59' E 015°18'713.4
2018-Jul-16 19:00N 36°01' E 015°10'713.2
2018-Jul-16 18:30N 36°03' E 015°02'613.0
2018-Jul-16 18:00N 36°05' E 014°55'712.9
2018-Jul-16 17:30N 36°08' E 014°47'613.0
2018-Jul-16 17:00N 36°10' E 014°40'713.0
2018-Jul-16 16:30N 36°12' E 014°33'613.0
2018-Jul-16 16:00N 36°15' E 014°25'612.9
2018-Jul-16 15:31N 36°17' E 014°18'712.9
2018-Jul-16 15:00N 36°19' E 014°10'713.5
2018-Jul-16 14:31N 36°21' E 014°02'714.1
2018-Jul-16 14:01N 36°24' E 013°54'714.5
2018-Jul-16 13:30N 36°27' E 013°45'714.4
2018-Jul-16 13:00N 36°29' E 013°37'714.1
2018-Jul-16 12:30N 36°32' E 013°29'714.0
2018-Jul-16 12:00N 36°34' E 013°21'714.1
2018-Jul-16 11:30N 36°37' E 013°12'713.7
2018-Jul-16 11:00N 36°39' E 013°04'713.6
2018-Jul-16 10:31N 36°41' E 012°57'713.9
2018-Jul-16 10:01N 36°44' E 012°48'914.1
2018-Jul-16 09:23N 36°47' E 012°38'714.0
2018-Jul-16 08:55N 36°49' E 012°30'614.4
2018-Jul-16 08:30N 36°51' E 012°23'714.2
2018-Jul-16 08:00N 36°54' E 012°15'713.3
2018-Jul-16 07:30N 36°56' E 012°07'31913.4
2018-Jul-15 07:39N 37°37' E 005°30'212.6
2018-Jul-15 07:30N 37°37' E 005°28'912.7
2018-Jul-15 06:49N 37°37' E 005°17'412.8
2018-Jul-15 06:30N 37°37' E 005°11'713.0
2018-Jul-15 05:57N 37°37' E 005°02'613.2
2018-Jul-15 05:30N 37°37' E 004°55'813.3
2018-Jul-15 04:53N 37°37' E 004°44'513.3
2018-Jul-15 04:30N 37°37' E 004°38'713.3
2018-Jul-15 03:59N 37°37' E 004°30'713.4
2018-Jul-15 03:30N 37°37' E 004°21'713.1
2018-Jul-15 02:58N 37°35' E 004°13'612.9
2018-Jul-15 02:30N 37°34' E 004°05'712.9
2018-Jul-15 01:59N 37°32' E 003°57'612.7
2018-Jul-15 01:30N 37°31' E 003°50'612.7
2018-Jul-15 01:00N 37°29' E 003°42'612.6
2018-Jul-15 00:30N 37°27' E 003°34'612.8
2018-Jul-15 00:00N 37°26' E 003°26'612.7
2018-Jul-14 23:30N 37°25' E 003°19'612.8
2018-Jul-14 23:00N 37°23' E 003°11'613.0
2018-Jul-14 22:30N 37°21' E 003°03'713.3
2018-Jul-14 22:00N 37°20' E 002°55'713.5
2018-Jul-14 21:30N 37°18' E 002°47'713.6
2018-Jul-14 21:00N 37°16' E 002°38'713.8
2018-Jul-14 20:30N 37°14' E 002°30'714.1
2018-Jul-14 20:00N 37°13' E 002°21'713.9
2018-Jul-14 19:30N 37°11' E 002°13'713.8
2018-Jul-14 19:00N 37°09' E 002°05'713.6
2018-Jul-14 18:29N 37°07' E 001°56'713.4
2018-Jul-14 17:59N 37°05' E 001°48'813.2
2018-Jul-14 17:24N 37°03' E 001°39'713.2
2018-Jul-14 16:51N 37°01' E 001°30'33014.0
2018-Jul-13 17:19N 35°59' W 005°12'516.6
2018-Jul-13 17:01N 35°59' W 005°19'916.8
2018-Jul-13 16:30N 35°57' W 005°29'17014.1
2018-Jul-13 04:27N 36°25' W 008°56'3612.9
2018-Jul-13 01:38N 36°44' W 009°35'313.8
2018-Jul-13 01:26N 36°46' W 009°37'1413.7
2018-Jul-13 00:25N 36°60' W 009°42'1614.0
2018-Jul-12 23:15N 37°16' W 009°47'2814.2
2018-Jul-12 21:18N 37°43' W 009°55'413.9
2018-Jul-12 21:00N 37°47' W 009°56'813.8
2018-Jul-12 20:24N 37°55' W 009°59'513.7
2018-Jul-12 20:00N 37°60' W 010°00'813.7
2018-Jul-12 19:26N 38°07' W 010°03'613.7
2018-Jul-12 18:59N 38°14' W 010°04'714.1
2018-Jul-12 18:28N 38°21' W 010°06'714.2
2018-Jul-12 18:00N 38°27' W 010°08'814.0
2018-Jul-12 17:27N 38°35' W 010°10'713.6
2018-Jul-12 16:57N 38°41' W 010°12'613.6
2018-Jul-12 16:31N 38°47' W 010°13'714.0
2018-Jul-12 16:00N 38°54' W 010°13'714.1
2018-Jul-12 15:30N 39°01' W 010°16'713.7
2018-Jul-12 15:00N 39°07' W 010°20'713.7
2018-Jul-12 14:27N 39°14' W 010°23'613.7
2018-Jul-12 14:00N 39°20' W 010°26'713.3
2018-Jul-12 13:31N 39°26' W 010°29'713.8
2018-Jul-12 13:00N 39°32' W 010°33'713.7
2018-Jul-12 12:30N 39°39' W 010°37'46813.5
2018-Jul-11 01:53N 47°04' W 007°18'3913.5
2018-Jul-10 22:58N 47°39' W 006°51'3313.7
2018-Jul-10 20:33N 48°08' W 006°27'3014.9
2018-Jul-10 18:33N 48°34' W 006°06'715.0
2018-Jul-10 18:04N 48°40' W 006°00'115.1
2018-Jul-10 17:59N 48°42' W 005°59'914.9
2018-Jul-10 17:24N 48°49' W 005°53'2313.5
2018-Jul-10 15:40N 49°03' W 005°25'212.9
2018-Jul-10 15:29N 49°05' W 005°22'1812.7
2018-Jul-10 14:06N 49°14' W 004°59'1912.6
2018-Jul-10 12:35N 49°25' W 004°35'413.0
2018-Jul-10 12:18N 49°27' W 004°30'613.3
2018-Jul-10 11:51N 49°30' W 004°22'1914.2
2018-Jul-10 10:30N 49°41' W 003°58'714.8
2018-Jul-10 10:00N 49°45' W 003°49'815.1
2018-Jul-10 09:30N 49°49' W 003°39'714.8
2018-Jul-10 09:00N 49°53' W 003°29'815.0
2018-Jul-10 08:30N 49°55' W 003°18'714.5
2018-Jul-10 08:00N 49°57' W 003°07'714.1
2018-Jul-10 07:30N 49°59' W 002°57'713.6
2018-Jul-10 07:00N 50°01' W 002°47'612.8
2018-Jul-10 06:30N 50°03' W 002°37'712.2
2018-Jul-10 05:57N 50°04' W 002°27'611.8
2018-Jul-10 05:28N 50°06' W 002°18'511.4
2018-Jul-10 05:00N 50°07' W 002°10'611.2
2018-Jul-10 04:30N 50°09' W 002°02'611.2
2018-Jul-10 04:00N 50°10' W 001°53'611.6
2018-Jul-10 03:30N 50°12' W 001°44'612.1
2018-Jul-10 03:00N 50°13' W 001°35'2113.6
2018-Jul-10 01:29N 50°18' W 001°04'815.5
2018-Jul-10 00:59N 50°20' W 000°52'715.5
2018-Jul-10 00:30N 50°22' W 000°41'815.6
2018-Jul-10 00:00N 50°25' W 000°29'815.8
2018-Jul-09 23:30N 50°27' W 000°17'815.3
2018-Jul-09 23:00N 50°29' W 000°06'815.2
2018-Jul-09 22:30N 50°31' E 000°06'714.9
2018-Jul-09 22:00N 50°33' E 000°17'714.6
2018-Jul-09 21:30N 50°35' E 000°28'714.0
2018-Jul-09 21:00N 50°38' E 000°38'713.9
2018-Jul-09 20:30N 50°43' E 000°46'713.4
2018-Jul-09 20:00N 50°47' E 000°54'713.3
2018-Jul-09 19:30N 50°51' E 001°03'713.4
2018-Jul-09 19:00N 50°56' E 001°11'713.2
2018-Jul-09 18:30N 50°60' E 001°18'714.0
2018-Jul-09 18:00N 51°04' E 001°27'815.5
2018-Jul-09 17:30N 51°09' E 001°37'815.5
2018-Jul-09 17:00N 51°14' E 001°46'816.1
2018-Jul-09 16:30N 51°22' E 001°51'815.6
2018-Jul-09 16:00N 51°29' E 001°57'815.2
2018-Jul-09 15:30N 51°34' E 002°05'714.6
2018-Jul-09 15:00N 51°40' E 002°13'714.3
2018-Jul-09 14:30N 51°45' E 002°21'713.3
2018-Jul-09 14:00N 51°50' E 002°27'713.4
2018-Jul-09 13:30N 51°57' E 002°24'713.0
2018-Jul-09 13:00N 52°03' E 002°20'712.9
2018-Jul-09 12:30N 52°08' E 002°14'612.7
2018-Jul-09 12:00N 52°14' E 002°09'510.9
2018-Jul-09 11:30N 52°18' E 002°04'0 0.4
2018-Jul-09 10:58N 52°19' E 002°04'0 0.0
2018-Jul-09 10:25N 52°19' E 002°04'0 0.1
2018-Jul-09 09:58N 52°19' E 002°04'0 0.1
2018-Jul-09 09:28N 52°18' E 002°04'0 0.1
2018-Jul-09 08:58N 52°18' E 002°04'0 0.2
2018-Jul-09 08:28N 52°18' E 002°04'0 0.1
2018-Jul-09 06:55N 52°18' E 002°04'0 0.0
2018-Jul-09 06:28N 52°18' E 002°04'0 0.0
2018-Jul-09 05:58N 52°18' E 002°04'0 0.0
2018-Jul-09 05:28N 52°18' E 002°04'0 0.0
2018-Jul-09 04:58N 52°18' E 002°04'0 0.0
2018-Jul-09 04:28N 52°18' E 002°04'0 0.0
2018-Jul-09 03:58N 52°18' E 002°04'0 0.0
2018-Jul-09 03:28N 52°18' E 002°04'0 0.0
2018-Jul-09 02:58N 52°18' E 002°04'0 0.0
2018-Jul-09 02:28N 52°18' E 002°04'0 0.1
2018-Jul-09 01:58N 52°18' E 002°04'0 0.3
2018-Jul-09 01:16N 52°18' E 002°04'0 0.1
2018-Jul-09 00:55N 52°18' E 002°04'0 0.1
2018-Jul-09 00:28N 52°18' E 002°04'0 0.0
2018-Jul-08 23:49N 52°18' E 002°04'0 0.1
2018-Jul-08 23:28N 52°19' E 002°04'0 0.0
2018-Jul-08 22:58N 52°19' E 002°04'0 0.0
2018-Jul-08 21:46N 52°18' E 002°04'0 0.0
2018-Jul-08 21:10N 52°18' E 002°04'0 0.1
2018-Jul-08 20:55N 52°18' E 002°04'0 0.1
2018-Jul-08 20:25N 52°18' E 002°04'0 0.2
2018-Jul-08 19:55N 52°18' E 002°04'0 0.2
2018-Jul-08 19:25N 52°18' E 002°04'0 0.0
2018-Jul-08 18:58N 52°18' E 002°04'0 0.0
2018-Jul-08 18:25N 52°18' E 002°04'0 0.0
2018-Jul-08 17:58N 52°18' E 002°04'0 0.0
2018-Jul-08 17:25N 52°18' E 002°04'0 0.0
2018-Jul-08 16:55N 52°18' E 002°04'0 0.0
2018-Jul-08 16:25N 52°18' E 002°04'0 0.0
2018-Jul-08 15:59N 52°18' E 002°04'0 0.0
2018-Jul-08 15:22N 52°18' E 002°04'0 0.0
2018-Jul-08 14:58N 52°18' E 002°04'0 0.0
2018-Jul-08 14:28N 52°18' E 002°04'0 0.0
2018-Jul-08 13:55N 52°18' E 002°04'0 0.4
2018-Jul-08 13:28N 52°18' E 002°04'0 0.1
2018-Jul-08 12:58N 52°18' E 002°04'0 0.0
2018-Jul-08 12:25N 52°18' E 002°04'0 0.0
2018-Jul-08 11:55N 52°18' E 002°04'0 0.0
2018-Jul-08 11:28N 52°19' E 002°04'0 0.0
2018-Jul-08 10:58N 52°19' E 002°04'0 0.0
2018-Jul-08 10:28N 52°19' E 002°04'0 0.0
2018-Jul-08 09:58N 52°19' E 002°04'0 0.0
2018-Jul-08 09:28N 52°19' E 002°04'0 0.1
2018-Jul-08 08:58N 52°19' E 002°04'0 0.0
2018-Jul-08 08:28N 52°19' E 002°04'0 0.1
2018-Jul-08 07:55N 52°18' E 002°04'0 0.3
2018-Jul-08 07:25N 52°18' E 002°04'0 0.1
2018-Jul-08 06:58N 52°18' E 002°04'0 0.1
2018-Jul-08 06:28N 52°18' E 002°04'0 0.0
2018-Jul-08 05:58N 52°18' E 002°04'0 0.0
2018-Jul-08 05:28N 52°18' E 002°04'0 0.0
2018-Jul-08 04:58N 52°18' E 002°04'0 0.0
2018-Jul-08 04:28N 52°18' E 002°04'0 0.0
2018-Jul-08 03:55N 52°18' E 002°04'0 0.0
2018-Jul-08 03:28N 52°18' E 002°04'0 0.0
2018-Jul-08 02:58N 52°18' E 002°04'0 0.0
2018-Jul-08 02:28N 52°18' E 002°04'0 0.0
2018-Jul-08 01:58N 52°18' E 002°04'0 0.0
2018-Jul-08 01:25N 52°18' E 002°04'0 0.0
2018-Jul-08 00:58N 52°18' E 002°04'0 0.3
2018-Jul-08 00:25N 52°18' E 002°04'0 0.2
2018-Jul-07 23:55N 52°19' E 002°04'0 0.0
2018-Jul-07 23:28N 52°19' E 002°04'0 0.0
2018-Jul-07 22:58N 52°19' E 002°04'0 0.0
2018-Jul-07 22:28N 52°19' E 002°04'0 0.0
2018-Jul-07 21:58N 52°19' E 002°04'0 0.0
2018-Jul-07 21:28N 52°19' E 002°04'0 0.0
2018-Jul-07 20:58N 52°19' E 002°04'0 0.0
2018-Jul-07 20:28N 52°19' E 002°04'0 0.0
2018-Jul-07 19:58N 52°19' E 002°04'0 0.0
2018-Jul-07 19:28N 52°19' E 002°04'0 0.1
2018-Jul-07 18:58N 52°18' E 002°04'0 0.2
2018-Jul-07 18:28N 52°18' E 002°04'0 0.1
2018-Jul-07 17:58N 52°18' E 002°04'0 0.1
2018-Jul-07 17:25N 52°18' E 002°04'0 0.0
2018-Jul-07 16:55N 52°18' E 002°04'0 0.0
2018-Jul-07 16:28N 52°18' E 002°04'0 0.0
2018-Jul-07 15:58N 52°18' E 002°04'0 0.0
2018-Jul-07 15:25N 52°18' E 002°04'0 0.0
2018-Jul-07 14:58N 52°18' E 002°04'0 0.0
2018-Jul-07 14:25N 52°18' E 002°04'0 0.0
2018-Jul-07 13:55N 52°18' E 002°04'0 0.0
2018-Jul-07 13:25N 52°18' E 002°04'0 0.0
2018-Jul-07 12:58N 52°18' E 002°04'0 0.1
2018-Jul-07 12:25N 52°18' E 002°04'0 0.1
2018-Jul-07 11:58N 52°18' E 002°04'0 0.2
2018-Jul-07 11:28N 52°18' E 002°04'0 0.2
2018-Jul-07 10:55N 52°18' E 002°04'0 0.0
2018-Jul-07 10:25N 52°18' E 002°04'0 0.1
2018-Jul-07 09:58N 52°19' E 002°04'0 0.0
2018-Jul-07 09:28N 52°19' E 002°04'0 0.0
2018-Jul-07 08:58N 52°19' E 002°04'0 0.0
2018-Jul-07 08:28N 52°19' E 002°04'0 0.0
2018-Jul-07 07:58N 52°19' E 002°04'0 0.0
2018-Jul-07 07:28N 52°19' E 002°04'0 0.1
2018-Jul-07 06:58N 52°18' E 002°04'0 0.3
2018-Jul-07 06:28N 52°18' E 002°04'0 0.1
2018-Jul-07 05:58N 52°18' E 002°04'0 0.1
2018-Jul-07 05:28N 52°18' E 002°04'0 0.0
2018-Jul-07 04:58N 52°18' E 002°04'0 0.0
2018-Jul-07 04:28N 52°18' E 002°04'0 0.0
2018-Jul-07 03:55N 52°18' E 002°04'0 0.0
2018-Jul-07 03:28N 52°18' E 002°04'0 0.0
2018-Jul-07 02:55N 52°18' E 002°04'0 0.0
2018-Jul-07 02:28N 52°18' E 002°04'0 0.0
2018-Jul-07 01:49N 52°18' E 002°04'0 0.0
2018-Jul-07 01:28N 52°18' E 002°04'0 0.0
2018-Jul-07 00:49N 52°18' E 002°04'0 0.1
2018-Jul-07 00:25N 52°18' E 002°04'0 0.0
2018-Jul-06 23:55N 52°18' E 002°04'0 0.2
2018-Jul-06 23:25N 52°18' E 002°04'  
Track history (hours):
 
Tides and Currents Weather Stations Pressure Air Temp Water Temp Dewpoint Dewpoint Depression Visibility Wind Speed Wind Dir Waves Ship Positions

Alburaq

Last reported at 2018-Jul-16 23:19 UTC. Time now 2018-Jul-17 16:54 UTC.
Position N 35°45' E 016°18'.

Length 250 m; draft 8.4 m.

Type: Tanker. MMSI: 370467000.

Date/timePositionNaut miles runAvg speedWind from/ knotsBaromVisibWave heightAir tempDewpointWater temp
2018-Jul-16 23:19N 35°45' E 016°18'513.3
2018-Jul-16 22:59N 35°46' E 016°13'3913.2
2018-Jul-16 20:03N 35°57' E 015°27'113.6
2018-Jul-16 19:58N 35°57' E 015°26'613.5
2018-Jul-16 19:30N 35°59' E 015°18'713.4
2018-Jul-16 19:00N 36°01' E 015°10'713.2
2018-Jul-16 18:30N 36°03' E 015°02'613.0
2018-Jul-16 18:00N 36°05' E 014°55'712.9
2018-Jul-16 17:30N 36°08' E 014°47'613.0
2018-Jul-16 17:00N 36°10' E 014°40'713.0
2018-Jul-16 16:30N 36°12' E 014°33'613.0
2018-Jul-16 16:00N 36°15' E 014°25'612.9
2018-Jul-16 15:31N 36°17' E 014°18'712.9
2018-Jul-16 15:00N 36°19' E 014°10'713.5
2018-Jul-16 14:31N 36°21' E 014°02'714.1
2018-Jul-16 14:01N 36°24' E 013°54'714.5
2018-Jul-16 13:30N 36°27' E 013°45'714.4
2018-Jul-16 13:00N 36°29' E 013°37'714.1
2018-Jul-16 12:30N 36°32' E 013°29'714.0
2018-Jul-16 12:00N 36°34' E 013°21'714.1
2018-Jul-16 11:30N 36°37' E 013°12'713.7
2018-Jul-16 11:00N 36°39' E 013°04'713.6
2018-Jul-16 10:31N 36°41' E 012°57'713.9
2018-Jul-16 10:01N 36°44' E 012°48'914.1
2018-Jul-16 09:23N 36°47' E 012°38'714.0
2018-Jul-16 08:55N 36°49' E 012°30'614.4
2018-Jul-16 08:30N 36°51' E 012°23'714.2
2018-Jul-16 08:00N 36°54' E 012°15'713.3
2018-Jul-16 07:30N 36°56' E 012°07'31913.4
2018-Jul-15 07:39N 37°37' E 005°30'212.6
2018-Jul-15 07:30N 37°37' E 005°28'912.7
2018-Jul-15 06:49N 37°37' E 005°17'412.8
2018-Jul-15 06:30N 37°37' E 005°11'713.0
2018-Jul-15 05:57N 37°37' E 005°02'613.2
2018-Jul-15 05:30N 37°37' E 004°55'813.3
2018-Jul-15 04:53N 37°37' E 004°44'513.3
2018-Jul-15 04:30N 37°37' E 004°38'713.3
2018-Jul-15 03:59N 37°37' E 004°30'713.4
2018-Jul-15 03:30N 37°37' E 004°21'713.1
2018-Jul-15 02:58N 37°35' E 004°13'612.9
2018-Jul-15 02:30N 37°34' E 004°05'712.9
2018-Jul-15 01:59N 37°32' E 003°57'612.7
2018-Jul-15 01:30N 37°31' E 003°50'612.7
2018-Jul-15 01:00N 37°29' E 003°42'612.6
2018-Jul-15 00:30N 37°27' E 003°34'612.8
2018-Jul-15 00:00N 37°26' E 003°26'612.7
2018-Jul-14 23:30N 37°25' E 003°19'612.8
2018-Jul-14 23:00N 37°23' E 003°11'613.0
2018-Jul-14 22:30N 37°21' E 003°03'713.3
2018-Jul-14 22:00N 37°20' E 002°55'713.5
2018-Jul-14 21:30N 37°18' E 002°47'713.6
2018-Jul-14 21:00N 37°16' E 002°38'713.8
2018-Jul-14 20:30N 37°14' E 002°30'714.1
2018-Jul-14 20:00N 37°13' E 002°21'713.9
2018-Jul-14 19:30N 37°11' E 002°13'713.8
2018-Jul-14 19:00N 37°09' E 002°05'713.6
2018-Jul-14 18:29N 37°07' E 001°56'713.4
2018-Jul-14 17:59N 37°05' E 001°48'813.2
2018-Jul-14 17:24N 37°03' E 001°39'713.2
2018-Jul-14 16:51N 37°01' E 001°30'33014.0
2018-Jul-13 17:19N 35°59' W 005°12'516.6
2018-Jul-13 17:01N 35°59' W 005°19'916.8
2018-Jul-13 16:30N 35°57' W 005°29'17014.1
2018-Jul-13 04:27N 36°25' W 008°56'3612.9
2018-Jul-13 01:38N 36°44' W 009°35'313.8
2018-Jul-13 01:26N 36°46' W 009°37'1413.7
2018-Jul-13 00:25N 36°60' W 009°42'1614.0
2018-Jul-12 23:15N 37°16' W 009°47'2814.2
2018-Jul-12 21:18N 37°43' W 009°55'413.9
2018-Jul-12 21:00N 37°47' W 009°56'813.8
2018-Jul-12 20:24N 37°55' W 009°59'513.7
2018-Jul-12 20:00N 37°60' W 010°00'813.7
2018-Jul-12 19:26N 38°07' W 010°03'613.7
2018-Jul-12 18:59N 38°14' W 010°04'714.1
2018-Jul-12 18:28N 38°21' W 010°06'714.2
2018-Jul-12 18:00N 38°27' W 010°08'814.0
2018-Jul-12 17:27N 38°35' W 010°10'713.6
2018-Jul-12 16:57N 38°41' W 010°12'613.6
2018-Jul-12 16:31N 38°47' W 010°13'714.0
2018-Jul-12 16:00N 38°54' W 010°13'714.1
2018-Jul-12 15:30N 39°01' W 010°16'713.7
2018-Jul-12 15:00N 39°07' W 010°20'713.7
2018-Jul-12 14:27N 39°14' W 010°23'613.7
2018-Jul-12 14:00N 39°20' W 010°26'713.3
2018-Jul-12 13:31N 39°26' W 010°29'713.8
2018-Jul-12 13:00N 39°32' W 010°33'713.7
2018-Jul-12 12:30N 39°39' W 010°37'46813.5
2018-Jul-11 01:53N 47°04' W 007°18'3913.5
2018-Jul-10 22:58N 47°39' W 006°51'3313.7
2018-Jul-10 20:33N 48°08' W 006°27'3014.9
2018-Jul-10 18:33N 48°34' W 006°06'715.0
2018-Jul-10 18:04N 48°40' W 006°00'115.1
2018-Jul-10 17:59N 48°42' W 005°59'914.9
2018-Jul-10 17:24N 48°49' W 005°53'2313.5
2018-Jul-10 15:40N 49°03' W 005°25'212.9
2018-Jul-10 15:29N 49°05' W 005°22'1812.7
2018-Jul-10 14:06N 49°14' W 004°59'1912.6
2018-Jul-10 12:35N 49°25' W 004°35'413.0
2018-Jul-10 12:18N 49°27' W 004°30'613.3
2018-Jul-10 11:51N 49°30' W 004°22'1914.2
2018-Jul-10 10:30N 49°41' W 003°58'714.8
2018-Jul-10 10:00N 49°45' W 003°49'815.1
2018-Jul-10 09:30N 49°49' W 003°39'714.8
2018-Jul-10 09:00N 49°53' W 003°29'815.0
2018-Jul-10 08:30N 49°55' W 003°18'714.5
2018-Jul-10 08:00N 49°57' W 003°07'714.1
2018-Jul-10 07:30N 49°59' W 002°57'713.6
2018-Jul-10 07:00N 50°01' W 002°47'612.8
2018-Jul-10 06:30N 50°03' W 002°37'712.2
2018-Jul-10 05:57N 50°04' W 002°27'611.8
2018-Jul-10 05:28N 50°06' W 002°18'511.4
2018-Jul-10 05:00N 50°07' W 002°10'611.2
2018-Jul-10 04:30N 50°09' W 002°02'611.2
2018-Jul-10 04:00N 50°10' W 001°53'611.6
2018-Jul-10 03:30N 50°12' W 001°44'612.1
2018-Jul-10 03:00N 50°13' W 001°35'2113.6
2018-Jul-10 01:29N 50°18' W 001°04'815.5
2018-Jul-10 00:59N 50°20' W 000°52'715.5
2018-Jul-10 00:30N 50°22' W 000°41'815.6
2018-Jul-10 00:00N 50°25' W 000°29'815.8
2018-Jul-09 23:30N 50°27' W 000°17'815.3
2018-Jul-09 23:00N 50°29' W 000°06'815.2
2018-Jul-09 22:30N 50°31' E 000°06'714.9
2018-Jul-09 22:00N 50°33' E 000°17'714.6
2018-Jul-09 21:30N 50°35' E 000°28'714.0
2018-Jul-09 21:00N 50°38' E 000°38'713.9
2018-Jul-09 20:30N 50°43' E 000°46'713.4
2018-Jul-09 20:00N 50°47' E 000°54'713.3
2018-Jul-09 19:30N 50°51' E 001°03'713.4
2018-Jul-09 19:00N 50°56' E 001°11'713.2
2018-Jul-09 18:30N 50°60' E 001°18'714.0
2018-Jul-09 18:00N 51°04' E 001°27'815.5
2018-Jul-09 17:30N 51°09' E 001°37'815.5
2018-Jul-09 17:00N 51°14' E 001°46'816.1
2018-Jul-09 16:30N 51°22' E 001°51'815.6
2018-Jul-09 16:00N 51°29' E 001°57'815.2
2018-Jul-09 15:30N 51°34' E 002°05'714.6
2018-Jul-09 15:00N 51°40' E 002°13'714.3
2018-Jul-09 14:30N 51°45' E 002°21'713.3
2018-Jul-09 14:00N 51°50' E 002°27'713.4
2018-Jul-09 13:30N 51°57' E 002°24'713.0
2018-Jul-09 13:00N 52°03' E 002°20'712.9
2018-Jul-09 12:30N 52°08' E 002°14'612.7
2018-Jul-09 12:00N 52°14' E 002°09'510.9
2018-Jul-09 11:30N 52°18' E 002°04'0 0.4
2018-Jul-09 10:58N 52°19' E 002°04'0 0.0
2018-Jul-09 10:25N 52°19' E 002°04'0 0.1
2018-Jul-09 09:58N 52°19' E 002°04'0 0.1
2018-Jul-09 09:28N 52°18' E 002°04'0 0.1
2018-Jul-09 08:58N 52°18' E 002°04'0 0.2
2018-Jul-09 08:28N 52°18' E 002°04'0 0.1
2018-Jul-09 06:55N 52°18' E 002°04'0 0.0
2018-Jul-09 06:28N 52°18' E 002°04'0 0.0
2018-Jul-09 05:58N 52°18' E 002°04'0 0.0
2018-Jul-09 05:28N 52°18' E 002°04'0 0.0
2018-Jul-09 04:58N 52°18' E 002°04'0 0.0
2018-Jul-09 04:28N 52°18' E 002°04'0 0.0
2018-Jul-09 03:58N 52°18' E 002°04'0 0.0
2018-Jul-09 03:28N 52°18' E 002°04'0 0.0
2018-Jul-09 02:58N 52°18' E 002°04'0 0.0
2018-Jul-09 02:28N 52°18' E 002°04'0 0.1
2018-Jul-09 01:58N 52°18' E 002°04'0 0.3
2018-Jul-09 01:16N 52°18' E 002°04'0 0.1
2018-Jul-09 00:55N 52°18' E 002°04'0 0.1
2018-Jul-09 00:28N 52°18' E 002°04'0 0.0
2018-Jul-08 23:49N 52°18' E 002°04'0 0.1
2018-Jul-08 23:28N 52°19' E 002°04'0 0.0
2018-Jul-08 22:58N 52°19' E 002°04'0 0.0
2018-Jul-08 21:46N 52°18' E 002°04'0 0.0
2018-Jul-08 21:10N 52°18' E 002°04'0 0.1
2018-Jul-08 20:55N 52°18' E 002°04'0 0.1
2018-Jul-08 20:25N 52°18' E 002°04'0 0.2
2018-Jul-08 19:55N 52°18' E 002°04'0 0.2
2018-Jul-08 19:25N 52°18' E 002°04'0 0.0
2018-Jul-08 18:58N 52°18' E 002°04'0 0.0
2018-Jul-08 18:25N 52°18' E 002°04'0 0.0
2018-Jul-08 17:58N 52°18' E 002°04'0 0.0
2018-Jul-08 17:25N 52°18' E 002°04'0 0.0
2018-Jul-08 16:55N 52°18' E 002°04'0 0.0
2018-Jul-08 16:25N 52°18' E 002°04'0 0.0
2018-Jul-08 15:59N 52°18' E 002°04'0 0.0
2018-Jul-08 15:22N 52°18' E 002°04'0 0.0
2018-Jul-08 14:58N 52°18' E 002°04'0 0.0
2018-Jul-08 14:28N 52°18' E 002°04'0 0.0
2018-Jul-08 13:55N 52°18' E 002°04'0 0.4
2018-Jul-08 13:28N 52°18' E 002°04'0 0.1
2018-Jul-08 12:58N 52°18' E 002°04'0 0.0
2018-Jul-08 12:25N 52°18' E 002°04'0 0.0
2018-Jul-08 11:55N 52°18' E 002°04'0 0.0
2018-Jul-08 11:28N 52°19' E 002°04'0 0.0
2018-Jul-08 10:58N 52°19' E 002°04'0 0.0
2018-Jul-08 10:28N 52°19' E 002°04'0 0.0
2018-Jul-08 09:58N 52°19' E 002°04'0 0.0
2018-Jul-08 09:28N 52°19' E 002°04'0 0.1
2018-Jul-08 08:58N 52°19' E 002°04'0 0.0
2018-Jul-08 08:28N 52°19' E 002°04'0 0.1
2018-Jul-08 07:55N 52°18' E 002°04'0 0.3
2018-Jul-08 07:25N 52°18' E 002°04'0 0.1
2018-Jul-08 06:58N 52°18' E 002°04'0 0.1
2018-Jul-08 06:28N 52°18' E 002°04'0 0.0
2018-Jul-08 05:58N 52°18' E 002°04'0 0.0
2018-Jul-08 05:28N 52°18' E 002°04'0 0.0
2018-Jul-08 04:58N 52°18' E 002°04'0 0.0
2018-Jul-08 04:28N 52°18' E 002°04'0 0.0
2018-Jul-08 03:55N 52°18' E 002°04'0 0.0
2018-Jul-08 03:28N 52°18' E 002°04'0 0.0
2018-Jul-08 02:58N 52°18' E 002°04'0 0.0
2018-Jul-08 02:28N 52°18' E 002°04'0 0.0
2018-Jul-08 01:58N 52°18' E 002°04'0 0.0
2018-Jul-08 01:25N 52°18' E 002°04'0 0.0
2018-Jul-08 00:58N 52°18' E 002°04'0 0.3
2018-Jul-08 00:25N 52°18' E 002°04'0 0.2
2018-Jul-07 23:55N 52°19' E 002°04'0 0.0
2018-Jul-07 23:28N 52°19' E 002°04'0 0.0
2018-Jul-07 22:58N 52°19' E 002°04'0 0.0
2018-Jul-07 22:28N 52°19' E 002°04'0 0.0
2018-Jul-07 21:58N 52°19' E 002°04'0 0.0
2018-Jul-07 21:28N 52°19' E 002°04'0 0.0
2018-Jul-07 20:58N 52°19' E 002°04'0 0.0
2018-Jul-07 20:28N 52°19' E 002°04'0 0.0
2018-Jul-07 19:58N 52°19' E 002°04'0 0.0
2018-Jul-07 19:28N 52°19' E 002°04'0 0.1
2018-Jul-07 18:58N 52°18' E 002°04'0 0.2
2018-Jul-07 18:28N 52°18' E 002°04'0 0.1
2018-Jul-07 17:58N 52°18' E 002°04'0 0.1
2018-Jul-07 17:25N 52°18' E 002°04'0 0.0
2018-Jul-07 16:55N 52°18' E 002°04'0 0.0
2018-Jul-07 16:28N 52°18' E 002°04'0 0.0
2018-Jul-07 15:58N 52°18' E 002°04'0 0.0
2018-Jul-07 15:25N 52°18' E 002°04'0 0.0
2018-Jul-07 14:58N 52°18' E 002°04'0 0.0
2018-Jul-07 14:25N 52°18' E 002°04'0 0.0
2018-Jul-07 13:55N 52°18' E 002°04'0 0.0
2018-Jul-07 13:25N 52°18' E 002°04'0 0.0
2018-Jul-07 12:58N 52°18' E 002°04'0 0.1
2018-Jul-07 12:25N 52°18' E 002°04'0 0.1
2018-Jul-07 11:58N 52°18' E 002°04'0 0.2
2018-Jul-07 11:28N 52°18' E 002°04'0 0.2
2018-Jul-07 10:55N 52°18' E 002°04'0 0.0
2018-Jul-07 10:25N 52°18' E 002°04'0 0.1
2018-Jul-07 09:58N 52°19' E 002°04'0 0.0
2018-Jul-07 09:28N 52°19' E 002°04'0 0.0
2018-Jul-07 08:58N 52°19' E 002°04'0 0.0
2018-Jul-07 08:28N 52°19' E 002°04'0 0.0
2018-Jul-07 07:58N 52°19' E 002°04'0 0.0
2018-Jul-07 07:28N 52°19' E 002°04'0 0.1
2018-Jul-07 06:58N 52°18' E 002°04'0 0.3
2018-Jul-07 06:28N 52°18' E 002°04'0 0.1
2018-Jul-07 05:58N 52°18' E 002°04'0 0.1
2018-Jul-07 05:28N 52°18' E 002°04'0 0.0
2018-Jul-07 04:58N 52°18' E 002°04'0 0.0
2018-Jul-07 04:28N 52°18' E 002°04'0 0.0
2018-Jul-07 03:55N 52°18' E 002°04'0 0.0
2018-Jul-07 03:28N 52°18' E 002°04'0 0.0
2018-Jul-07 02:55N 52°18' E 002°04'0 0.0
2018-Jul-07 02:28N 52°18' E 002°04'0 0.0
2018-Jul-07 01:49N 52°18' E 002°04'0 0.0
2018-Jul-07 01:28N 52°18' E 002°04'0 0.0
2018-Jul-07 00:49N 52°18' E 002°04'0 0.1
2018-Jul-07 00:25N 52°18' E 002°04'0 0.0
2018-Jul-06 23:55N 52°18' E 002°04'0 0.2
2018-Jul-06 23:25N 52°18' E 002°04'  

Dump ship's entire track history